sensor_id;sensor_type;location;lat;lon;timestamp;pressure;altitude;pressure_sealevel;temperature;humidity
10992;BME280;5549;47.028;15.514;2023-11-19T00:00:08;97089.47;;;6.60;52.66
10992;BME280;5549;47.028;15.514;2023-11-19T00:02:38;97081.47;;;6.63;52.55
10992;BME280;5549;47.028;15.514;2023-11-19T00:05:07;97079.13;;;6.59;52.04
10992;BME280;5549;47.028;15.514;2023-11-19T00:07:40;97064.31;;;6.59;52.63
10992;BME280;5549;47.028;15.514;2023-11-19T00:10:10;97061.13;;;6.54;52.70
10992;BME280;5549;47.028;15.514;2023-11-19T00:12:40;97063.09;;;6.51;52.90
10992;BME280;5549;47.028;15.514;2023-11-19T00:15:09;97061.13;;;6.54;52.92
10992;BME280;5549;47.028;15.514;2023-11-19T00:17:37;97068.13;;;6.54;53.10
10992;BME280;5549;47.028;15.514;2023-11-19T00:20:08;97062.81;;;6.55;52.46
10992;BME280;5549;47.028;15.514;2023-11-19T00:22:38;97063.75;;;6.54;52.63
10992;BME280;5549;47.028;15.514;2023-11-19T00:25:07;97065.50;;;6.54;52.50
10992;BME280;5549;47.028;15.514;2023-11-19T00:27:35;97066.72;;;6.48;52.72
10992;BME280;5549;47.028;15.514;2023-11-19T00:30:04;97065.69;;;6.36;54.32
10992;BME280;5549;47.028;15.514;2023-11-19T00:32:32;97063.31;;;6.18;54.61
10992;BME280;5549;47.028;15.514;2023-11-19T00:35:00;97058.44;;;5.82;56.47
10992;BME280;5549;47.028;15.514;2023-11-19T00:37:27;97058.22;;;5.55;59.43
10992;BME280;5549;47.028;15.514;2023-11-19T00:39:56;97052.31;;;5.67;58.39
10992;BME280;5549;47.028;15.514;2023-11-19T00:42:24;97054.06;;;4.72;60.71
10992;BME280;5549;47.028;15.514;2023-11-19T00:44:52;97038.84;;;4.64;61.16
10992;BME280;5549;47.028;15.514;2023-11-19T00:47:21;97034.28;;;4.52;60.96
10992;BME280;5549;47.028;15.514;2023-11-19T00:49:51;97054.84;;;4.90;60.09
10992;BME280;5549;47.028;15.514;2023-11-19T00:52:19;97062.38;;;5.27;59.22
10992;BME280;5549;47.028;15.514;2023-11-19T00:54:50;97052.19;;;5.38;57.57
10992;BME280;5549;47.028;15.514;2023-11-19T00:57:19;97030.03;;;5.31;57.06
10992;BME280;5549;47.028;15.514;2023-11-19T00:59:46;97018.00;;;5.44;56.64
10992;BME280;5549;47.028;15.514;2023-11-19T01:02:16;97018.00;;;5.44;57.81
10992;BME280;5549;47.028;15.514;2023-11-19T01:04:43;97032.50;;;5.64;56.33
10992;BME280;5549;47.028;15.514;2023-11-19T01:07:11;97028.84;;;5.21;56.85
10992;BME280;5549;47.028;15.514;2023-11-19T01:09:41;97023.13;;;5.30;56.91
10992;BME280;5549;47.028;15.514;2023-11-19T01:12:08;97026.03;;;5.56;56.25
10992;BME280;5549;47.028;15.514;2023-11-19T01:14:38;97039.22;;;4.90;58.28
10992;BME280;5549;47.028;15.514;2023-11-19T01:17:06;97033.34;;;5.02;58.49
10992;BME280;5549;47.028;15.514;2023-11-19T01:19:33;97033.53;;;5.30;57.98
10992;BME280;5549;47.028;15.514;2023-11-19T01:22:01;97033.03;;;5.39;58.06
10992;BME280;5549;47.028;15.514;2023-11-19T01:24:28;97023.09;;;5.62;57.39
10992;BME280;5549;47.028;15.514;2023-11-19T01:26:57;97012.53;;;5.02;58.32
10992;BME280;5549;47.028;15.514;2023-11-19T01:29:26;97014.28;;;5.01;58.00
10992;BME280;5549;47.028;15.514;2023-11-19T01:31:55;97009.63;;;4.59;59.38
10992;BME280;5549;47.028;15.514;2023-11-19T01:34:24;96998.84;;;4.34;61.26
10992;BME280;5549;47.028;15.514;2023-11-19T01:36:52;96997.75;;;4.87;60.12
10992;BME280;5549;47.028;15.514;2023-11-19T01:39:19;96991.88;;;5.14;59.46
10992;BME280;5549;47.028;15.514;2023-11-19T01:41:47;96983.41;;;4.79;59.68
10992;BME280;5549;47.028;15.514;2023-11-19T01:44:15;96981.47;;;4.99;59.86
10992;BME280;5549;47.028;15.514;2023-11-19T01:46:44;96963.00;;;5.03;59.67
10992;BME280;5549;47.028;15.514;2023-11-19T01:49:22;96960.31;;;5.05;59.57
10992;BME280;5549;47.028;15.514;2023-11-19T01:51:50;96965.34;;;5.08;59.75
10992;BME280;5549;47.028;15.514;2023-11-19T01:54:20;96957.63;;;4.91;61.17
10992;BME280;5549;47.028;15.514;2023-11-19T01:56:47;96949.81;;;4.91;60.89
10992;BME280;5549;47.028;15.514;2023-11-19T01:59:15;96948.72;;;5.10;60.23
10992;BME280;5549;47.028;15.514;2023-11-19T02:01:45;96948.97;;;5.06;60.32
10992;BME280;5549;47.028;15.514;2023-11-19T02:04:13;96946.53;;;4.87;61.34
10992;BME280;5549;47.028;15.514;2023-11-19T02:06:44;96940.16;;;4.93;61.53
10992;BME280;5549;47.028;15.514;2023-11-19T02:09:13;96928.41;;;4.70;62.52
10992;BME280;5549;47.028;15.514;2023-11-19T02:11:44;96924.72;;;4.90;61.82
10992;BME280;5549;47.028;15.514;2023-11-19T02:14:19;96925.38;;;5.09;61.63
10992;BME280;5549;47.028;15.514;2023-11-19T02:16:52;96916.41;;;4.99;61.62
10992;BME280;5549;47.028;15.514;2023-11-19T02:19:20;96914.47;;;4.87;62.85
10992;BME280;5549;47.028;15.514;2023-11-19T02:21:49;96910.13;;;4.87;62.35
10992;BME280;5549;47.028;15.514;2023-11-19T02:24:20;96909.78;;;4.93;62.60
10992;BME280;5549;47.028;15.514;2023-11-19T02:26:57;96913.78;;;4.99;62.48
10992;BME280;5549;47.028;15.514;2023-11-19T02:29:27;96910.88;;;4.89;63.57
10992;BME280;5549;47.028;15.514;2023-11-19T02:31:55;96907.94;;;4.48;65.06
10992;BME280;5549;47.028;15.514;2023-11-19T02:34:22;96897.88;;;4.58;64.86
10992;BME280;5549;47.028;15.514;2023-11-19T02:36:50;96885.97;;;4.54;65.08
10992;BME280;5549;47.028;15.514;2023-11-19T02:39:20;96887.63;;;4.70;64.57
10992;BME280;5549;47.028;15.514;2023-11-19T02:41:47;96892.56;;;4.91;63.79
10992;BME280;5549;47.028;15.514;2023-11-19T02:44:19;96885.97;;;4.69;64.69
10992;BME280;5549;47.028;15.514;2023-11-19T02:46:48;96885.03;;;4.70;64.87
10992;BME280;5549;47.028;15.514;2023-11-19T02:49:15;96890.66;;;4.78;64.64
10992;BME280;5549;47.028;15.514;2023-11-19T02:51:45;96875.91;;;4.63;64.80
10992;BME280;5549;47.028;15.514;2023-11-19T02:54:12;96878.41;;;4.49;65.34
10992;BME280;5549;47.028;15.514;2023-11-19T02:56:42;96865.91;;;4.71;65.39
10992;BME280;5549;47.028;15.514;2023-11-19T02:59:16;96866.47;;;3.98;67.69
10992;BME280;5549;47.028;15.514;2023-11-19T03:01:54;96858.03;;;4.57;66.14
10992;BME280;5549;47.028;15.514;2023-11-19T03:04:22;96850.28;;;4.71;65.24
10992;BME280;5549;47.028;15.514;2023-11-19T03:06:50;96842.53;;;4.86;65.09
10992;BME280;5549;47.028;15.514;2023-11-19T03:09:19;96850.56;;;4.51;65.71
10992;BME280;5549;47.028;15.514;2023-11-19T03:11:47;96844.16;;;4.72;65.11
10992;BME280;5549;47.028;15.514;2023-11-19T03:14:16;96843.69;;;4.96;64.47
10992;BME280;5549;47.028;15.514;2023-11-19T03:16:45;96834.09;;;5.12;64.07
10992;BME280;5549;47.028;15.514;2023-11-19T03:19:14;96839.78;;;5.19;63.57
10992;BME280;5549;47.028;15.514;2023-11-19T03:21:45;96838.25;;;5.30;63.05
10992;BME280;5549;47.028;15.514;2023-11-19T03:24:15;96834.25;;;5.25;63.73
10992;BME280;5549;47.028;15.514;2023-11-19T03:26:47;96834.31;;;5.23;62.90
10992;BME280;5549;47.028;15.514;2023-11-19T03:29:16;96821.91;;;5.12;63.98
10992;BME280;5549;47.028;15.514;2023-11-19T03:31:45;96817.28;;;5.18;64.13
10992;BME280;5549;47.028;15.514;2023-11-19T03:34:14;96811.09;;;5.34;63.09
10992;BME280;5549;47.028;15.514;2023-11-19T03:36:41;96796.97;;;5.38;63.48
10992;BME280;5549;47.028;15.514;2023-11-19T03:39:11;96800.88;;;5.45;62.61
10992;BME280;5549;47.028;15.514;2023-11-19T03:41:39;96802.34;;;5.35;63.17
10992;BME280;5549;47.028;15.514;2023-11-19T03:44:06;96797.06;;;5.37;63.11
10992;BME280;5549;47.028;15.514;2023-11-19T03:46:34;96795.94;;;5.41;63.25
10992;BME280;5549;47.028;15.514;2023-11-19T03:49:04;96781.50;;;5.21;64.54
10992;BME280;5549;47.028;15.514;2023-11-19T03:51:34;96770.81;;;5.26;64.55
10992;BME280;5549;47.028;15.514;2023-11-19T03:54:02;96774.16;;;5.28;63.76
10992;BME280;5549;47.028;15.514;2023-11-19T03:56:30;96774.03;;;5.15;64.37
10992;BME280;5549;47.028;15.514;2023-11-19T03:58:59;96776.03;;;5.26;64.42
10992;BME280;5549;47.028;15.514;2023-11-19T04:01:26;96772.59;;;5.25;64.33
10992;BME280;5549;47.028;15.514;2023-11-19T04:03:54;96775.84;;;5.29;64.42
10992;BME280;5549;47.028;15.514;2023-11-19T04:06:26;96771.13;;;5.35;63.95
10992;BME280;5549;47.028;15.514;2023-11-19T04:08:55;96774.09;;;5.43;63.40
10992;BME280;5549;47.028;15.514;2023-11-19T04:11:22;96767.41;;;5.54;63.92
10992;BME280;5549;47.028;15.514;2023-11-19T04:13:50;96756.03;;;5.55;63.39
10992;BME280;5549;47.028;15.514;2023-11-19T04:16:17;96751.03;;;5.37;63.67
10992;BME280;5549;47.028;15.514;2023-11-19T04:18:45;96747.59;;;5.37;64.12
10992;BME280;5549;47.028;15.514;2023-11-19T04:21:12;96745.72;;;5.39;64.18
10992;BME280;5549;47.028;15.514;2023-11-19T04:23:40;96743.78;;;5.42;63.44
10992;BME280;5549;47.028;15.514;2023-11-19T04:26:09;96748.22;;;5.40;64.15
10992;BME280;5549;47.028;15.514;2023-11-19T04:28:36;96747.69;;;5.50;63.93
10992;BME280;5549;47.028;15.514;2023-11-19T04:31:04;96751.84;;;5.52;63.82
10992;BME280;5549;47.028;15.514;2023-11-19T04:33:32;96737.72;;;5.56;63.33
10992;BME280;5549;47.028;15.514;2023-11-19T04:36:01;96730.56;;;5.60;62.76
10992;BME280;5549;47.028;15.514;2023-11-19T04:38:29;96734.28;;;5.41;63.52
10992;BME280;5549;47.028;15.514;2023-11-19T04:40:56;96745.81;;;5.52;63.31
10992;BME280;5549;47.028;15.514;2023-11-19T04:43:33;96745.63;;;5.55;62.38
10992;BME280;5549;47.028;15.514;2023-11-19T04:46:03;96737.44;;;5.61;63.20
10992;BME280;5549;47.028;15.514;2023-11-19T04:48:30;96744.78;;;5.68;62.61
10992;BME280;5549;47.028;15.514;2023-11-19T04:51:00;96728.88;;;5.73;62.53
10992;BME280;5549;47.028;15.514;2023-11-19T04:53:28;96731.56;;;5.71;62.07
10992;BME280;5549;47.028;15.514;2023-11-19T04:55:56;96731.28;;;5.76;62.42
10992;BME280;5549;47.028;15.514;2023-11-19T04:58:23;96729.22;;;5.81;61.14
10992;BME280;5549;47.028;15.514;2023-11-19T05:00:52;96717.69;;;5.85;61.07
10992;BME280;5549;47.028;15.514;2023-11-19T05:03:20;96725.13;;;5.91;61.30
10992;BME280;5549;47.028;15.514;2023-11-19T05:05:49;96727.34;;;5.97;61.16
10992;BME280;5549;47.028;15.514;2023-11-19T05:08:16;96709.13;;;5.97;60.88
10992;BME280;5549;47.028;15.514;2023-11-19T05:10:44;96700.34;;;5.98;60.67
10992;BME280;5549;47.028;15.514;2023-11-19T05:13:11;96691.25;;;5.91;60.64
10992;BME280;5549;47.028;15.514;2023-11-19T05:15:41;96706.91;;;5.91;59.84
10992;BME280;5549;47.028;15.514;2023-11-19T05:18:10;96708.38;;;5.95;59.85
10992;BME280;5549;47.028;15.514;2023-11-19T05:20:38;96696.72;;;5.87;60.63
10992;BME280;5549;47.028;15.514;2023-11-19T05:23:05;96694.13;;;5.87;60.09
10992;BME280;5549;47.028;15.514;2023-11-19T05:25:33;96686.41;;;5.85;60.40
10992;BME280;5549;47.028;15.514;2023-11-19T05:28:00;96683.78;;;5.85;59.33
10992;BME280;5549;47.028;15.514;2023-11-19T05:30:27;96669.09;;;5.84;60.01
10992;BME280;5549;47.028;15.514;2023-11-19T05:32:55;96665.94;;;5.79;59.51
10992;BME280;5549;47.028;15.514;2023-11-19T05:35:24;96673.03;;;5.77;59.82
10992;BME280;5549;47.028;15.514;2023-11-19T05:37:52;96672.19;;;5.76;59.38
10992;BME280;5549;47.028;15.514;2023-11-19T05:40:19;96676.47;;;5.77;59.32
10992;BME280;5549;47.028;15.514;2023-11-19T05:42:46;96679.06;;;5.77;59.92
10992;BME280;5549;47.028;15.514;2023-11-19T05:45:16;96687.44;;;5.83;59.54
10992;BME280;5549;47.028;15.514;2023-11-19T05:47:44;96683.25;;;5.80;59.22
10992;BME280;5549;47.028;15.514;2023-11-19T05:50:11;96690.13;;;5.81;59.61
10992;BME280;5549;47.028;15.514;2023-11-19T05:52:42;96700.38;;;5.84;59.74
10992;BME280;5549;47.028;15.514;2023-11-19T05:55:12;96679.72;;;5.81;60.06
10992;BME280;5549;47.028;15.514;2023-11-19T05:57:40;96666.03;;;5.77;60.65
10992;BME280;5549;47.028;15.514;2023-11-19T06:00:09;96652.56;;;5.71;61.67
10992;BME280;5549;47.028;15.514;2023-11-19T06:02:41;96666.97;;;5.76;60.73
10992;BME280;5549;47.028;15.514;2023-11-19T06:05:11;96665.94;;;5.79;60.63
10992;BME280;5549;47.028;15.514;2023-11-19T06:07:39;96659.06;;;5.78;61.47
10992;BME280;5549;47.028;15.514;2023-11-19T06:10:09;96651.81;;;5.69;62.38
10992;BME280;5549;47.028;15.514;2023-11-19T06:12:39;96652.59;;;5.57;63.11
10992;BME280;5549;47.028;15.514;2023-11-19T06:15:08;96657.81;;;5.57;63.17
10992;BME280;5549;47.028;15.514;2023-11-19T06:17:36;96631.75;;;5.57;62.83
10992;BME280;5549;47.028;15.514;2023-11-19T06:20:05;96626.34;;;5.60;62.16
10992;BME280;5549;47.028;15.514;2023-11-19T06:22:34;96630.63;;;5.61;62.36
10992;BME280;5549;47.028;15.514;2023-11-19T06:25:02;96637.22;;;5.66;62.04
10992;BME280;5549;47.028;15.514;2023-11-19T06:27:34;96650.69;;;5.73;61.96
10992;BME280;5549;47.028;15.514;2023-11-19T06:30:06;96649.56;;;5.77;61.64
10992;BME280;5549;47.028;15.514;2023-11-19T06:32:35;96651.97;;;5.80;61.77
10992;BME280;5549;47.028;15.514;2023-11-19T06:35:05;96650.75;;;5.86;61.59
10992;BME280;5549;47.028;15.514;2023-11-19T06:37:34;96647.13;;;5.88;62.12
10992;BME280;5549;47.028;15.514;2023-11-19T06:40:05;96642.47;;;5.93;61.70
10992;BME280;5549;47.028;15.514;2023-11-19T06:42:36;96631.41;;;5.48;64.38
10992;BME280;5549;47.028;15.514;2023-11-19T06:45:07;96637.31;;;5.65;64.12
10992;BME280;5549;47.028;15.514;2023-11-19T06:47:35;96629.13;;;5.71;63.76
10992;BME280;5549;47.028;15.514;2023-11-19T06:50:03;96630.78;;;5.72;63.74
10992;BME280;5549;47.028;15.514;2023-11-19T06:52:33;96627.03;;;5.76;63.12
10992;BME280;5549;47.028;15.514;2023-11-19T06:55:00;96628.53;;;5.80;63.00
10992;BME280;5549;47.028;15.514;2023-11-19T06:57:27;96627.19;;;5.87;62.43
10992;BME280;5549;47.028;15.514;2023-11-19T06:59:57;96627.72;;;6.06;64.35
10992;BME280;5549;47.028;15.514;2023-11-19T07:02:25;96633.13;;;6.56;77.42
10992;BME280;5549;47.028;15.514;2023-11-19T07:04:52;96637.03;;;7.01;80.17
10992;BME280;5549;47.028;15.514;2023-11-19T07:07:20;96644.50;;;7.44;80.00
10992;BME280;5549;47.028;15.514;2023-11-19T07:09:48;96637.41;;;7.82;78.33
10992;BME280;5549;47.028;15.514;2023-11-19T07:12:16;96638.75;;;8.12;74.81
10992;BME280;5549;47.028;15.514;2023-11-19T07:14:43;96645.31;;;8.41;69.95
10992;BME280;5549;47.028;15.514;2023-11-19T07:17:12;96643.59;;;8.64;68.04
10992;BME280;5549;47.028;15.514;2023-11-19T07:19:39;96644.63;;;8.85;65.98
10992;BME280;5549;47.028;15.514;2023-11-19T07:22:07;96650.13;;;9.05;64.42
10992;BME280;5549;47.028;15.514;2023-11-19T07:24:38;96640.03;;;9.22;61.29
10992;BME280;5549;47.028;15.514;2023-11-19T07:27:06;96645.28;;;9.45;63.86
10992;BME280;5549;47.028;15.514;2023-11-19T07:29:34;96624.75;;;9.61;61.92
10992;BME280;5549;47.028;15.514;2023-11-19T07:32:02;96629.03;;;9.73;60.41
10992;BME280;5549;47.028;15.514;2023-11-19T07:34:32;96609.44;;;9.88;60.20
10992;BME280;5549;47.028;15.514;2023-11-19T07:36:59;96597.06;;;9.79;56.99
10992;BME280;5549;47.028;15.514;2023-11-19T07:39:30;96570.81;;;9.90;56.60
10992;BME280;5549;47.028;15.514;2023-11-19T07:41:58;96553.47;;;9.67;54.58
10992;BME280;5549;47.028;15.514;2023-11-19T07:44:26;96526.13;;;9.49;54.26
10992;BME280;5549;47.028;15.514;2023-11-19T07:46:55;96535.47;;;9.19;54.30
10992;BME280;5549;47.028;15.514;2023-11-19T07:49:25;96572.38;;;9.27;54.70
10992;BME280;5549;47.028;15.514;2023-11-19T07:51:54;96601.09;;;9.07;54.18
10992;BME280;5549;47.028;15.514;2023-11-19T07:54:22;96597.31;;;8.64;53.94
10992;BME280;5549;47.028;15.514;2023-11-19T07:56:50;96607.66;;;8.31;54.00
10992;BME280;5549;47.028;15.514;2023-11-19T07:59:19;96626.34;;;8.02;54.95
10992;BME280;5549;47.028;15.514;2023-11-19T08:01:49;96603.25;;;7.72;56.31
10992;BME280;5549;47.028;15.514;2023-11-19T08:04:17;96583.09;;;7.62;56.17
10992;BME280;5549;47.028;15.514;2023-11-19T08:06:44;96616.84;;;7.28;56.31
10992;BME280;5549;47.028;15.514;2023-11-19T08:09:13;96635.56;;;7.22;56.33
10992;BME280;5549;47.028;15.514;2023-11-19T08:11:41;96638.47;;;7.30;56.36
10992;BME280;5549;47.028;15.514;2023-11-19T08:14:08;96624.06;;;7.25;56.20
10992;BME280;5549;47.028;15.514;2023-11-19T08:16:36;96620.44;;;7.15;57.33
10992;BME280;5549;47.028;15.514;2023-11-19T08:19:03;96622.41;;;7.11;56.98
10992;BME280;5549;47.028;15.514;2023-11-19T08:21:31;96618.44;;;7.05;57.85
10992;BME280;5549;47.028;15.514;2023-11-19T08:23:58;96613.00;;;7.21;57.73
10992;BME280;5549;47.028;15.514;2023-11-19T08:26:27;96618.03;;;7.12;58.54
10992;BME280;5549;47.028;15.514;2023-11-19T08:28:54;96619.03;;;7.34;57.80
10992;BME280;5549;47.028;15.514;2023-11-19T08:31:25;96606.84;;;7.59;58.34
10992;BME280;5549;47.028;15.514;2023-11-19T08:33:52;96598.78;;;7.62;58.08
10992;BME280;5549;47.028;15.514;2023-11-19T08:36:20;96586.72;;;7.72;57.03
10992;BME280;5549;47.028;15.514;2023-11-19T08:38:49;96571.81;;;7.85;56.35
10992;BME280;5549;47.028;15.514;2023-11-19T08:41:17;96572.91;;;8.18;56.14
10992;BME280;5549;47.028;15.514;2023-11-19T08:43:46;96570.63;;;8.48;55.69
10992;BME280;5549;47.028;15.514;2023-11-19T08:46:14;96569.09;;;8.46;55.57
10992;BME280;5549;47.028;15.514;2023-11-19T08:48:41;96580.56;;;8.67;54.51
10992;BME280;5549;47.028;15.514;2023-11-19T08:51:09;96574.91;;;8.49;55.55
10992;BME280;5549;47.028;15.514;2023-11-19T08:53:36;96569.16;;;8.68;55.04
10992;BME280;5549;47.028;15.514;2023-11-19T08:56:05;96559.41;;;9.04;55.03
10992;BME280;5549;47.028;15.514;2023-11-19T08:58:33;96561.53;;;9.43;53.92
10992;BME280;5549;47.028;15.514;2023-11-19T09:01:02;96560.09;;;9.82;54.09
10992;BME280;5549;47.028;15.514;2023-11-19T09:03:32;96557.34;;;10.16;52.18
10992;BME280;5549;47.028;15.514;2023-11-19T09:06:00;96545.94;;;10.38;51.39
10992;BME280;5549;47.028;15.514;2023-11-19T09:08:29;96541.47;;;10.70;51.56
10992;BME280;5549;47.028;15.514;2023-11-19T09:10:56;96548.78;;;10.97;50.36
10992;BME280;5549;47.028;15.514;2023-11-19T09:13:24;96542.75;;;11.06;47.96
10992;BME280;5549;47.028;15.514;2023-11-19T09:15:52;96535.00;;;11.05;48.55
10992;BME280;5549;47.028;15.514;2023-11-19T09:18:21;96547.38;;;10.93;47.86
10992;BME280;5549;47.028;15.514;2023-11-19T09:20:48;96557.97;;;10.82;47.65
10992;BME280;5549;47.028;15.514;2023-11-19T09:23:16;96557.53;;;10.77;49.03
10992;BME280;5549;47.028;15.514;2023-11-19T09:25:45;96544.63;;;10.64;48.54
10992;BME280;5549;47.028;15.514;2023-11-19T09:28:13;96527.94;;;10.33;49.65
10992;BME280;5549;47.028;15.514;2023-11-19T09:30:40;96528.53;;;10.37;50.03
10992;BME280;5549;47.028;15.514;2023-11-19T09:33:07;96522.13;;;9.97;50.34
10992;BME280;5549;47.028;15.514;2023-11-19T09:35:37;96533.22;;;9.69;51.78
10992;BME280;5549;47.028;15.514;2023-11-19T09:38:05;96544.19;;;9.63;51.51
10992;BME280;5549;47.028;15.514;2023-11-19T09:40:32;96541.69;;;9.61;51.75
10992;BME280;5549;47.028;15.514;2023-11-19T09:43:00;96530.75;;;9.88;52.22
10992;BME280;5549;47.028;15.514;2023-11-19T09:45:28;96530.50;;;9.91;50.92
10992;BME280;5549;47.028;15.514;2023-11-19T09:47:57;96525.25;;;9.91;51.30
10992;BME280;5549;47.028;15.514;2023-11-19T09:50:27;96511.94;;;10.36;50.63
10992;BME280;5549;47.028;15.514;2023-11-19T09:52:56;96496.91;;;10.38;50.09
10992;BME280;5549;47.028;15.514;2023-11-19T09:55:24;96474.09;;;10.39;49.73
10992;BME280;5549;47.028;15.514;2023-11-19T09:57:53;96472.75;;;10.65;49.31
10992;BME280;5549;47.028;15.514;2023-11-19T10:00:22;96473.81;;;10.93;48.03
10992;BME280;5549;47.028;15.514;2023-11-19T10:02:50;96487.41;;;11.08;48.58
10992;BME280;5549;47.028;15.514;2023-11-19T10:05:20;96493.94;;;11.13;48.30
10992;BME280;5549;47.028;15.514;2023-11-19T10:07:48;96496.75;;;11.31;47.55
10992;BME280;5549;47.028;15.514;2023-11-19T10:10:20;96493.84;;;11.24;47.80
10992;BME280;5549;47.028;15.514;2023-11-19T10:12:50;96482.50;;;11.34;47.17
10992;BME280;5549;47.028;15.514;2023-11-19T10:15:22;96479.63;;;11.46;46.59
10992;BME280;5549;47.028;15.514;2023-11-19T10:17:50;96457.72;;;10.77;48.17
10992;BME280;5549;47.028;15.514;2023-11-19T10:20:18;96449.69;;;10.69;48.50
10992;BME280;5549;47.028;15.514;2023-11-19T10:22:48;96442.66;;;10.79;48.77
10992;BME280;5549;47.028;15.514;2023-11-19T10:25:24;96439.25;;;10.98;47.35
10992;BME280;5549;47.028;15.514;2023-11-19T10:27:53;96435.34;;;10.82;49.48
10992;BME280;5549;47.028;15.514;2023-11-19T10:30:22;96417.72;;;11.13;47.82
10992;BME280;5549;47.028;15.514;2023-11-19T10:33:05;96430.78;;;11.63;48.71
10992;BME280;5549;47.028;15.514;2023-11-19T10:35:33;96411.50;;;12.11;46.88
10992;BME280;5549;47.028;15.514;2023-11-19T10:38:01;96401.00;;;12.58;46.48
10992;BME280;5549;47.028;15.514;2023-11-19T10:40:41;96390.03;;;13.07;46.35
10992;BME280;5549;47.028;15.514;2023-11-19T10:43:09;96401.34;;;13.45;44.36
10992;BME280;5549;47.028;15.514;2023-11-19T10:45:38;96387.13;;;12.83;43.39
10992;BME280;5549;47.028;15.514;2023-11-19T10:48:06;96385.66;;;13.61;46.20
10992;BME280;5549;47.028;15.514;2023-11-19T10:50:35;96380.31;;;13.53;42.15
10992;BME280;5549;47.028;15.514;2023-11-19T10:53:04;96386.50;;;13.44;41.54
10992;BME280;5549;47.028;15.514;2023-11-19T10:55:33;96373.81;;;13.47;42.60
10992;BME280;5549;47.028;15.514;2023-11-19T10:58:05;96377.09;;;13.14;43.01
10992;BME280;5549;47.028;15.514;2023-11-19T11:00:38;96378.66;;;12.89;43.51
10992;BME280;5549;47.028;15.514;2023-11-19T11:03:13;96391.47;;;12.74;43.51
10992;BME280;5549;47.028;15.514;2023-11-19T11:05:43;96375.28;;;12.97;42.79
10992;BME280;5549;47.028;15.514;2023-11-19T11:08:14;96383.31;;;12.95;43.45
10992;BME280;5549;47.028;15.514;2023-11-19T11:10:45;96372.09;;;12.93;43.37
10992;BME280;5549;47.028;15.514;2023-11-19T11:13:16;96364.84;;;13.23;43.48
10992;BME280;5549;47.028;15.514;2023-11-19T11:15:44;96374.56;;;13.58;43.31
10992;BME280;5549;47.028;15.514;2023-11-19T11:18:13;96369.59;;;13.72;42.72
10992;BME280;5549;47.028;15.514;2023-11-19T11:20:40;96372.66;;;14.29;43.40
10992;BME280;5549;47.028;15.514;2023-11-19T11:23:37;96378.34;;;14.76;42.68
10992;BME280;5549;47.028;15.514;2023-11-19T11:26:41;96377.28;;;15.03;40.98
10992;BME280;5549;47.028;15.514;2023-11-19T11:29:24;96374.41;;;15.55;41.42
10992;BME280;5549;47.028;15.514;2023-11-19T11:32:03;96357.69;;;15.30;39.63
10992;BME280;5549;47.028;15.514;2023-11-19T11:35:08;96362.53;;;15.59;40.17
10992;BME280;5549;47.028;15.514;2023-11-19T11:37:46;96354.78;;;15.90;40.68
10992;BME280;5549;47.028;15.514;2023-11-19T11:40:18;96341.69;;;16.13;39.37
10992;BME280;5549;47.028;15.514;2023-11-19T11:42:45;96333.34;;;16.32;38.24
10992;BME280;5549;47.028;15.514;2023-11-19T11:45:15;96324.81;;;15.90;37.74
10992;BME280;5549;47.028;15.514;2023-11-19T11:48:10;96318.44;;;16.31;38.09
10992;BME280;5549;47.028;15.514;2023-11-19T11:50:56;96310.94;;;15.88;38.71
10992;BME280;5549;47.028;15.514;2023-11-19T11:53:27;96318.22;;;15.69;37.94
10992;BME280;5549;47.028;15.514;2023-11-19T11:55:57;96308.22;;;16.12;37.26
10992;BME280;5549;47.028;15.514;2023-11-19T11:58:32;96304.13;;;15.93;37.61
10992;BME280;5549;47.028;15.514;2023-11-19T12:01:04;96315.19;;;16.05;37.94
10992;BME280;5549;47.028;15.514;2023-11-19T12:03:37;96296.69;;;15.97;37.99
10992;BME280;5549;47.028;15.514;2023-11-19T12:06:05;96295.00;;;16.04;37.54
10992;BME280;5549;47.028;15.514;2023-11-19T12:08:35;96305.63;;;15.96;37.34
10992;BME280;5549;47.028;15.514;2023-11-19T12:11:03;96298.97;;;16.08;37.40
10992;BME280;5549;47.028;15.514;2023-11-19T12:13:47;96298.78;;;16.18;38.05
10992;BME280;5549;47.028;15.514;2023-11-19T12:16:21;96292.72;;;16.48;38.77
10992;BME280;5549;47.028;15.514;2023-11-19T12:18:49;96295.03;;;15.96;38.20
10992;BME280;5549;47.028;15.514;2023-11-19T12:21:32;96291.06;;;15.92;37.82
10992;BME280;5549;47.028;15.514;2023-11-19T12:24:01;96292.13;;;16.30;39.36
10992;BME280;5549;47.028;15.514;2023-11-19T12:26:35;96285.28;;;16.44;37.88
10992;BME280;5549;47.028;15.514;2023-11-19T12:29:03;96289.19;;;16.17;37.44
10992;BME280;5549;47.028;15.514;2023-11-19T12:31:33;96284.50;;;16.27;36.99
10992;BME280;5549;47.028;15.514;2023-11-19T12:34:09;96285.69;;;16.24;37.03
10992;BME280;5549;47.028;15.514;2023-11-19T12:36:41;96282.97;;;16.41;37.58
10992;BME280;5549;47.028;15.514;2023-11-19T12:39:10;96276.66;;;16.42;36.57
10992;BME280;5549;47.028;15.514;2023-11-19T12:41:51;96281.25;;;16.09;37.37
10992;BME280;5549;47.028;15.514;2023-11-19T12:44:19;96284.78;;;15.93;38.14
10992;BME280;5549;47.028;15.514;2023-11-19T12:47:03;96293.59;;;15.61;38.60
10992;BME280;5549;47.028;15.514;2023-11-19T12:49:31;96286.41;;;15.53;39.03
10992;BME280;5549;47.028;15.514;2023-11-19T12:51:58;96279.50;;;15.77;39.31
10992;BME280;5549;47.028;15.514;2023-11-19T12:54:34;96294.03;;;15.32;40.15
10992;BME280;5549;47.028;15.514;2023-11-19T12:57:01;96279.66;;;15.59;39.20
10992;BME280;5549;47.028;15.514;2023-11-19T12:59:29;96282.94;;;15.45;39.41
10992;BME280;5549;47.028;15.514;2023-11-19T13:01:58;96278.53;;;15.69;39.37
10992;BME280;5549;47.028;15.514;2023-11-19T13:04:28;96279.34;;;15.78;40.03
10992;BME280;5549;47.028;15.514;2023-11-19T13:06:57;96279.31;;;15.86;39.39
10992;BME280;5549;47.028;15.514;2023-11-19T13:09:28;96278.97;;;15.97;39.29
10992;BME280;5549;47.028;15.514;2023-11-19T13:11:56;96289.84;;;16.11;39.03
10992;BME280;5549;47.028;15.514;2023-11-19T13:14:36;96292.53;;;16.02;39.70
10992;BME280;5549;47.028;15.514;2023-11-19T13:17:08;96274.00;;;15.94;38.98
10992;BME280;5549;47.028;15.514;2023-11-19T13:19:38;96271.22;;;15.80;39.24